Time;durP1;ratioP1;P1;durP2;ratioP2;P2;SDS_P1;SDS_P2;PMS_P1;PMS_P2;Temp;Humidity;BMP_temperature;BMP_pressure;BME280_temperature;BME280_humidity;BME280_pressure;Samples;Min_cycle;Max_cycle;Signal;HPM_P1;HPM_P2
2023/07/03 00:01:27;;;;;;;31.77;13.45;;;25.30;81.60;;;;;;5034970;28;20048;-77
2023/07/03 00:03:53;;;;;;;37.47;13.98;;;25.30;81.80;;;;;;5035277;28;20037;-76
2023/07/03 00:06:19;;;;;;;28.80;13.70;;;25.30;81.90;;;;;;5035025;28;20025;-76
2023/07/03 00:08:45;;;;;;;29.73;13.00;;;25.20;81.90;;;;;;5034903;28;20041;-76
2023/07/03 00:11:10;;;;;;;35.28;13.55;;;25.20;82.20;;;;;;5035164;28;20487;-78
2023/07/03 00:13:36;;;;;;;34.47;14.23;;;25.20;82.40;;;;;;5017315;28;20060;-76
2023/07/03 00:16:03;;;;;;;26.38;13.32;;;25.20;82.50;;;;;;5035047;28;20036;-77
2023/07/03 00:18:30;;;;;;;29.45;14.50;;;25.10;82.40;;;;;;5034935;28;20026;-77
2023/07/03 00:20:56;;;;;;;35.55;14.27;;;25.10;82.40;;;;;;5034701;28;20037;-77
2023/07/03 00:23:23;;;;;;;30.52;13.38;;;25.10;82.50;;;;;;5034825;28;20029;-78
2023/07/03 00:25:49;;;;;;;31.70;13.75;;;25.20;82.40;;;;;;5034675;28;20041;-76
2023/07/03 00:28:15;;;;;;;31.25;13.93;;;25.20;82.60;;;;;;5034910;28;20029;-77
2023/07/03 00:30:42;;;;;;;35.70;14.02;;;25.20;82.80;;;;;;5034764;28;20029;-77
2023/07/03 00:33:07;;;;;;;31.33;13.57;;;25.20;82.60;;;;;;5034651;28;20037;-77
2023/07/03 00:35:33;;;;;;;33.65;13.32;;;25.10;82.80;;;;;;5034422;28;20038;-77
2023/07/03 00:37:59;;;;;;;33.95;13.80;;;25.20;82.90;;;;;;5035100;28;20486;-78
2023/07/03 00:40:24;;;;;;;32.50;14.15;;;25.20;82.80;;;;;;5045606;28;20026;-75
2023/07/03 00:42:52;;;;;;;32.47;13.48;;;25.10;82.80;;;;;;5055061;28;20025;-77
2023/07/03 00:45:19;;;;;;;29.35;13.70;;;25.10;82.90;;;;;;5034749;28;20426;-77
2023/07/03 00:47:45;;;;;;;35.72;13.88;;;25.10;83.10;;;;;;5034902;28;20065;-77
2023/07/03 00:50:11;;;;;;;27.75;13.27;;;25.10;82.90;;;;;;5034114;28;20080;-77
2023/07/03 00:52:39;;;;;;;32.67;13.20;;;25.20;83.00;;;;;;5033773;28;20064;-77
2023/07/03 00:55:05;;;;;;;30.88;12.85;;;25.20;82.60;;;;;;5034152;28;20104;-77
2023/07/03 00:57:31;;;;;;;32.92;12.93;;;25.20;82.90;;;;;;5034070;28;20499;-77
2023/07/03 00:59:58;;;;;;;29.10;12.07;;;25.20;82.60;;;;;;5016182;28;20040;-77
2023/07/03 01:02:55;;;;;;;31.45;12.77;;;25.10;82.60;;;;;;5033909;28;20086;-77
2023/07/03 01:05:33;;;;;;;34.42;13.23;;;25.20;83.20;;;;;;5034300;28;20372;-77
2023/07/03 01:08:00;;;;;;;29.17;13.10;;;25.10;82.70;;;;;;5033998;28;20407;-77
2023/07/03 01:10:29;;;;;;;26.05;12.48;;;25.20;82.70;;;;;;5033934;28;20056;-66
2023/07/03 01:13:05;;;;;;;26.85;11.75;;;25.10;82.50;;;;;;5033732;28;20044;-77
2023/07/03 01:15:36;;;;;;;29.42;13.32;;;25.10;83.20;;;;;;5016104;28;20033;-77
2023/07/03 01:18:04;;;;;;;27.08;13.02;;;25.10;82.50;;;;;;5033876;28;20033;-76
2023/07/03 01:20:35;;;;;;;27.90;12.65;;;25.10;82.50;;;;;;5033713;28;20083;-77
2023/07/03 01:23:09;;;;;;;31.92;12.68;;;25.10;82.40;;;;;;5033279;28;20136;-77
2023/07/03 01:25:39;;;;;;;27.48;11.77;;;25.10;82.40;;;;;;5033669;28;20442;-77
2023/07/03 01:28:09;;;;;;;32.25;11.90;;;25.00;82.40;;;;;;5033674;28;20029;-79
2023/07/03 01:30:38;;;;;;;28.10;12.45;;;25.10;82.50;;;;;;5033460;28;20068;-77
2023/07/03 01:33:05;;;;;;;32.20;12.90;;;25.10;82.30;;;;;;5033519;28;20498;-77
2023/07/03 01:35:31;;;;;;;28.92;11.50;;;25.10;82.30;;;;;;5015634;28;20398;-77
2023/07/03 01:38:00;;;;;;;27.77;12.77;;;25.10;82.40;;;;;;5033595;28;20040;-78
2023/07/03 01:40:27;;;;;;;27.90;11.25;;;25.10;82.20;;;;;;5033477;28;20029;-76
2023/07/03 01:42:54;;;;;;;38.78;12.10;;;25.10;82.40;;;;;;5015253;28;20045;-73
2023/07/03 01:45:20;;;;;;;27.90;11.13;;;25.10;82.20;;;;;;5032837;28;20045;-77
2023/07/03 01:47:46;;;;;;;33.17;12.10;;;25.10;82.40;;;;;;5032684;28;20055;-77
2023/07/03 01:50:20;;;;;;;28.60;12.65;;;25.10;82.60;;;;;;5032975;28;20072;-77
2023/07/03 01:52:54;;;;;;;27.90;12.50;;;25.00;83.30;;;;;;5032977;28;20037;-77
2023/07/03 01:55:24;;;;;;;30.15;12.55;;;25.00;82.80;;;;;;5033499;28;20088;-77
2023/07/03 01:58:35;;;;;;;24.70;12.23;;;24.90;83.00;;;;;;5033191;28;20407;-77
2023/07/03 02:01:10;;;;;;;24.15;11.35;;;24.90;83.30;;;;;;5005434;28;20041;-77
2023/07/03 02:03:41;;;;;;;26.98;12.02;;;24.90;82.70;;;;;;5033164;28;20036;-78
2023/07/03 02:06:36;;;;;;;22.40;11.10;;;24.90;82.70;;;;;;5033130;28;20026;-77
2023/07/03 02:09:07;;;;;;;21.48;10.75;;;24.80;82.50;;;;;;5031429;28;20099;-77
2023/07/03 02:11:33;;;;;;;25.40;11.00;;;24.70;82.40;;;;;;5033169;28;20080;-77
2023/07/03 02:13:59;;;;;;;26.33;10.45;;;24.60;82.60;;;;;;5032972;28;20116;-77
2023/07/03 02:16:25;;;;;;;27.00;10.63;;;24.60;82.70;;;;;;5033660;28;20109;-77
2023/07/03 02:18:51;;;;;;;28.30;11.00;;;24.60;82.70;;;;;;5015119;28;20441;-78
2023/07/03 02:21:17;;;;;;;25.48;10.15;;;24.60;82.60;;;;;;5032525;28;20069;-77
2023/07/03 02:23:44;;;;;;;24.55;11.02;;;24.60;82.50;;;;;;5032598;28;20061;-77
2023/07/03 02:26:10;;;;;;;27.83;10.35;;;24.60;82.60;;;;;;5032643;28;20025;-76
2023/07/03 02:28:36;;;;;;;22.63;11.32;;;24.60;82.60;;;;;;5032490;28;20430;-77
2023/07/03 02:31:02;;;;;;;20.30;10.38;;;24.60;82.40;;;;;;5032469;28;20037;-78
2023/07/03 02:33:28;;;;;;;25.33;11.43;;;24.60;82.10;;;;;;5032362;28;20029;-77
2023/07/03 02:35:54;;;;;;;24.15;9.95;;;24.60;82.20;;;;;;5032598;28;20029;-77
2023/07/03 02:38:20;;;;;;;21.05;9.88;;;24.60;82.10;;;;;;5032551;28;20033;-75
2023/07/03 02:40:46;;;;;;;23.20;9.93;;;24.60;82.10;;;;;;5022053;28;20053;-77
2023/07/03 02:43:13;;;;;;;22.73;10.05;;;24.60;82.00;;;;;;5036901;28;20122;-76
2023/07/03 02:45:40;;;;;;;22.92;9.82;;;24.50;81.70;;;;;;5032824;28;20042;-76
2023/07/03 02:48:08;;;;;;;23.08;10.20;;;24.50;81.70;;;;;;5032681;28;20104;-77
2023/07/03 02:50:34;;;;;;;22.10;10.07;;;24.50;81.80;;;;;;5032977;28;20076;-77
2023/07/03 02:52:59;;;;;;;21.60;9.90;;;24.50;81.80;;;;;;5032771;28;20482;-76
2023/07/03 02:55:26;;;;;;;22.65;10.65;;;24.50;81.80;;;;;;5032927;28;20072;-77
2023/07/03 02:57:53;;;;;;;24.73;10.48;;;24.50;81.60;;;;;;5033180;28;20041;-76
2023/07/03 03:00:20;;;;;;;19.27;9.75;;;24.40;81.70;;;;;;5035057;28;20491;-77
2023/07/03 03:02:47;;;;;;;18.73;9.25;;;24.40;81.90;;;;;;5036366;28;20038;-76
2023/07/03 03:05:13;;;;;;;22.73;10.40;;;24.40;81.80;;;;;;5036246;28;20676;-76
2023/07/03 03:07:39;;;;;;;23.92;10.32;;;24.40;81.80;;;;;;5035983;28;20060;-77
2023/07/03 03:10:05;;;;;;;20.75;9.82;;;24.40;81.50;;;;;;5036335;28;20049;-77
2023/07/03 03:12:31;;;;;;;21.50;10.20;;;24.40;81.70;;;;;;5018271;28;20105;-76
2023/07/03 03:14:57;;;;;;;17.40;8.55;;;24.40;81.30;;;;;;5036102;28;20038;-76
2023/07/03 03:17:22;;;;;;;21.98;10.18;;;24.40;81.20;;;;;;5036598;28;20067;-76
2023/07/03 03:19:48;;;;;;;20.25;9.80;;;24.40;81.00;;;;;;5035980;28;20040;-78
2023/07/03 03:22:14;;;;;;;22.63;9.85;;;24.40;80.70;;;;;;5036205;28;20065;-77
2023/07/03 03:24:40;;;;;;;20.02;9.55;;;24.30;80.80;;;;;;5035914;28;20096;-77
2023/07/03 03:27:06;;;;;;;21.25;9.38;;;24.20;80.90;;;;;;5035824;28;20032;-77
2023/07/03 03:29:33;;;;;;;18.05;9.23;;;24.20;80.90;;;;;;5036026;28;20045;-76
2023/07/03 03:31:59;;;;;;;20.20;9.38;;;24.20;80.70;;;;;;5035958;28;20041;-78
2023/07/03 03:34:25;;;;;;;20.85;8.50;;;24.20;80.70;;;;;;5035830;28;20112;-78
2023/07/03 03:36:51;;;;;;;19.00;9.00;;;24.20;80.90;;;;;;5035682;28;20155;-76
2023/07/03 03:39:17;;;;;;;19.70;9.30;;;24.20;81.00;;;;;;5035782;28;20364;-77
2023/07/03 03:41:42;;;;;;;18.38;9.05;;;24.20;80.80;;;;;;5035346;28;20383;-76
2023/07/03 17:36:40;;;;;;;16.08;5.10;;;29.00;67.10;;;;;;5011729;28;20145;-74
2023/07/03 17:39:05;;;;;;;16.70;5.10;;;29.00;67.10;;;;;;5012909;28;20046;-73
2023/07/03 17:41:32;;;;;;;16.80;5.63;;;29.00;67.00;;;;;;5011087;28;20042;-73
2023/07/03 17:43:57;;;;;;;16.85;5.78;;;28.90;67.10;;;;;;5002920;28;20026;-75
2023/07/03 17:46:23;;;;;;;10.70;4.82;;;28.80;67.20;;;;;;4996116;28;20121;-75
2023/07/03 17:48:49;;;;;;;13.85;5.13;;;28.80;67.20;;;;;;5002624;28;20034;-74
2023/07/03 17:51:14;;;;;;;14.95;4.78;;;28.80;67.40;;;;;;5002813;28;20449;-74
2023/07/03 17:53:40;;;;;;;15.07;5.45;;;28.80;67.70;;;;;;5001704;28;20030;-76
2023/07/03 17:56:06;;;;;;;14.38;5.45;;;28.80;67.80;;;;;;5005514;28;20033;-75
2023/07/03 17:58:31;;;;;;;11.73;5.25;;;28.70;68.20;;;;;;5002317;28;20042;-74
2023/07/03 18:01:03;;;;;;;13.93;5.00;;;28.60;68.00;;;;;;5003136;28;20029;-74
2023/07/03 18:03:30;;;;;;;13.88;5.55;;;28.60;68.00;;;;;;5017423;28;20068;-75
2023/07/03 18:05:56;;;;;;;13.30;5.20;;;28.60;68.10;;;;;;5017747;28;20030;-73
2023/07/03 18:08:23;;;;;;;17.42;6.38;;;28.60;68.10;;;;;;5012386;28;20056;-75
2023/07/03 18:10:49;;;;;;;12.73;5.70;;;28.60;68.20;;;;;;5010922;28;20053;-73
2023/07/03 18:13:15;;;;;;;20.38;6.55;;;28.50;67.70;;;;;;5007105;28;20041;-77
2023/07/03 18:15:41;;;;;;;14.90;6.28;;;28.50;67.10;;;;;;5010767;28;20038;-75
2023/07/03 18:18:06;;;;;;;15.35;8.73;;;28.50;66.20;;;;;;5012458;28;20407;-74
2023/07/03 18:20:32;;;;;;;16.15;5.88;;;28.50;65.70;;;;;;5012387;28;20041;-73
2023/07/03 18:22:58;;;;;;;14.20;6.13;;;28.40;65.20;;;;;;5025196;28;20038;-74
2023/07/03 18:25:24;;;;;;;14.30;6.32;;;28.40;65.20;;;;;;5032047;28;20029;-74
2023/07/03 18:27:49;;;;;;;15.82;6.68;;;28.40;65.40;;;;;;5032247;28;20071;-74
2023/07/03 18:30:15;;;;;;;15.13;6.38;;;28.40;65.40;;;;;;5031106;28;20491;-74
2023/07/03 18:32:41;;;;;;;14.13;6.50;;;28.30;64.70;;;;;;5026809;28;20037;-74
2023/07/03 18:35:08;;;;;;;13.30;6.30;;;28.30;65.30;;;;;;5040826;28;20049;-73
2023/07/03 18:37:35;;;;;;;16.85;7.03;;;28.20;65.70;;;;;;5055461;28;20037;-76
2023/07/03 18:40:02;;;;;;;15.02;7.32;;;28.20;65.10;;;;;;5053278;28;20033;-74
2023/07/03 18:42:28;;;;;;;16.27;7.45;;;28.10;64.90;;;;;;5047084;28;20060;-74
2023/07/03 18:44:53;;;;;;;16.67;7.22;;;28.00;64.70;;;;;;5051619;28;20037;-74
2023/07/03 18:47:19;;;;;;;17.42;8.52;;;28.00;64.80;;;;;;5051862;28;20115;-74
2023/07/03 18:49:45;;;;;;;14.95;6.63;;;27.90;64.60;;;;;;5051256;28;20502;-74
2023/07/03 18:52:11;;;;;;;17.42;7.20;;;27.90;64.90;;;;;;5037993;28;20109;-76
2023/07/03 18:54:36;;;;;;;18.27;7.80;;;27.90;65.10;;;;;;5031500;28;20041;-73
2023/07/03 18:57:02;;;;;;;16.05;7.18;;;27.80;64.90;;;;;;5031281;28;20053;-74
2023/07/03 18:59:28;;;;;;;16.23;7.15;;;27.70;65.20;;;;;;5030547;28;20136;-74
2023/07/03 19:01:53;;;;;;;16.55;7.22;;;27.70;65.20;;;;;;5029944;28;20112;-75
2023/07/03 19:04:19;;;;;;;14.40;7.10;;;27.70;65.40;;;;;;5050537;28;20044;-75
2023/07/03 19:06:45;;;;;;;16.73;7.30;;;27.60;65.70;;;;;;5051444;28;20040;-75
2023/07/03 19:09:11;;;;;;;18.38;7.70;;;27.50;66.00;;;;;;5051428;28;20047;-74
2023/07/03 19:11:42;;;;;;;17.50;7.68;;;27.40;66.10;;;;;;5048149;28;20063;-73
2023/07/03 19:14:08;;;;;;;17.27;8.10;;;27.40;66.40;;;;;;5048711;28;20024;-74
2023/07/03 19:16:34;;;;;;;16.27;7.57;;;27.40;66.50;;;;;;5051038;28;20069;-75
2023/07/03 19:19:00;;;;;;;22.90;8.85;;;27.40;66.50;;;;;;5051245;28;20067;-73
2023/07/03 19:21:26;;;;;;;18.52;8.10;;;27.30;66.90;;;;;;5016092;28;20068;-76
2023/07/03 19:23:52;;;;;;;17.98;8.68;;;27.30;67.10;;;;;;5028146;28;20028;-67
2023/07/03 19:26:18;;;;;;;19.92;8.70;;;27.30;67.20;;;;;;5030595;28;20404;-68
2023/07/03 19:28:49;;;;;;;17.48;8.75;;;27.30;67.10;;;;;;5030832;28;20033;-68
2023/07/03 19:31:15;;;;;;;18.08;8.52;;;27.30;67.40;;;;;;5029313;28;20092;-67
2023/07/03 19:33:42;;;;;;;18.90;8.80;;;27.30;67.70;;;;;;5027924;28;20033;-67
2023/07/03 19:36:20;;;;;;;22.27;9.45;;;27.20;67.60;;;;;;5030029;28;20041;-69
2023/07/03 19:38:46;;;;;;;21.67;9.07;;;27.20;68.20;;;;;;5030388;28;20476;-69
2023/07/03 19:41:13;;;;;;;20.27;8.80;;;27.20;68.30;;;;;;5019743;28;20091;-68
2023/07/03 19:43:40;;;;;;;22.13;8.70;;;27.20;68.40;;;;;;5031091;28;20045;-68
2023/07/03 19:46:06;;;;;;;20.17;8.70;;;27.20;68.20;;;;;;5034953;28;20033;-69
2023/07/03 19:48:33;;;;;;;20.88;9.45;;;27.20;68.50;;;;;;5035193;28;20100;-69
2023/07/03 19:51:01;;;;;;;23.52;9.60;;;27.20;68.80;;;;;;5033887;28;20558;-69
2023/07/03 19:53:28;;;;;;;21.60;10.05;;;27.10;68.80;;;;;;5031365;28;20112;-69
2023/07/03 19:55:54;;;;;;;20.27;9.55;;;27.10;68.80;;;;;;5035132;28;20156;-69
2023/07/03 19:58:19;;;;;;;21.15;10.07;;;27.10;68.90;;;;;;5034185;28;20124;-69
2023/07/03 20:00:52;;;;;;;20.45;9.27;;;27.10;68.80;;;;;;5034723;28;20022;-68
2023/07/03 20:03:17;;;;;;;20.65;9.55;;;27.10;69.10;;;;;;5044092;28;20048;-68
2023/07/03 20:05:45;;;;;;;19.70;9.43;;;27.10;69.10;;;;;;5054512;28;20029;-69
2023/07/03 20:08:11;;;;;;;21.30;9.82;;;27.10;69.30;;;;;;5054267;28;20478;-67
2023/07/03 20:10:37;;;;;;;17.90;9.20;;;27.00;69.00;;;;;;5054008;28;20109;-69
2023/07/03 20:13:04;;;;;;;18.08;9.35;;;27.00;68.90;;;;;;5048970;28;20044;-71
2023/07/03 20:15:30;;;;;;;19.60;8.75;;;27.00;69.10;;;;;;5054535;28;20040;-69
2023/07/03 20:17:57;;;;;;;20.23;9.85;;;27.00;69.00;;;;;;5055092;28;20393;-67
2023/07/03 20:20:23;;;;;;;21.10;9.90;;;27.00;69.20;;;;;;5054529;28;20045;-68
2023/07/03 20:22:49;;;;;;;23.77;9.93;;;26.90;69.10;;;;;;5032168;28;20128;-68
2023/07/03 20:25:14;;;;;;;23.75;9.65;;;26.90;69.40;;;;;;5034101;28;20037;-70
2023/07/03 20:27:40;;;;;;;17.98;9.20;;;26.80;69.30;;;;;;5034069;28;20065;-69
2023/07/03 20:30:07;;;;;;;22.65;9.80;;;26.80;69.50;;;;;;5034344;28;20042;-68
2023/07/03 20:32:34;;;;;;;20.30;9.48;;;26.80;69.50;;;;;;5038844;28;20029;-68
2023/07/03 20:35:00;;;;;;;22.38;9.32;;;26.80;69.60;;;;;;5062694;28;20053;-67
2023/07/03 20:37:26;;;;;;;18.17;9.25;;;26.80;69.90;;;;;;5060561;28;20029;-69
2023/07/03 20:39:52;;;;;;;19.08;9.52;;;26.80;69.90;;;;;;5054234;28;20379;-67
2023/07/03 20:42:18;;;;;;;18.02;9.18;;;26.80;70.00;;;;;;5048343;28;20135;-68
2023/07/03 20:44:45;;;;;;;23.10;9.32;;;26.80;70.00;;;;;;5053848;28;20040;-69
2023/07/03 20:47:11;;;;;;;17.70;9.27;;;26.70;70.20;;;;;;5053898;28;20130;-69
2023/07/03 20:49:38;;;;;;;21.95;8.82;;;26.70;70.30;;;;;;5053848;28;20056;-69
2023/07/03 20:52:04;;;;;;;23.98;10.15;;;26.70;70.60;;;;;;5048478;28;20033;-67
2023/07/03 20:54:42;;;;;;;19.63;10.50;;;26.70;70.80;;;;;;5053398;28;20061;-70
2023/07/03 20:57:09;;;;;;;20.17;9.48;;;26.70;71.30;;;;;;5052870;28;20036;-67
2023/07/03 20:59:35;;;;;;;21.25;9.55;;;26.60;71.50;;;;;;5052979;28;20470;-68
2023/07/03 21:02:01;;;;;;;20.98;9.20;;;26.60;71.20;;;;;;5046357;28;20052;-68
2023/07/03 21:04:27;;;;;;;18.73;9.13;;;26.60;71.00;;;;;;5053356;28;20044;-68
2023/07/03 21:06:56;;;;;;;21.38;9.43;;;26.60;71.40;;;;;;5053710;28;20557;-67
2023/07/03 21:09:22;;;;;;;19.40;8.85;;;26.50;71.00;;;;;;5053243;28;20041;-68
2023/07/03 21:11:49;;;;;;;22.05;10.07;;;26.50;71.80;;;;;;5041157;28;20365;-69
2023/07/03 21:14:16;;;;;;;20.33;9.32;;;26.50;71.90;;;;;;5031336;28;20041;-67
2023/07/03 21:16:41;;;;;;;20.42;8.60;;;26.50;72.20;;;;;;5033331;28;20431;-69
2023/07/03 21:19:09;;;;;;;22.60;10.00;;;26.50;71.90;;;;;;5031809;28;20087;-68
2023/07/03 21:21:35;;;;;;;20.55;9.27;;;26.50;72.10;;;;;;5036063;28;20545;-68
2023/07/03 21:24:04;;;;;;;20.17;10.10;;;26.40;72.30;;;;;;5049021;28;20029;-68
2023/07/03 21:26:30;;;;;;;18.90;9.10;;;26.40;71.70;;;;;;5053027;28;20032;-68
2023/07/03 21:28:56;;;;;;;21.77;9.20;;;26.40;71.60;;;;;;5051594;28;20021;-68
2023/07/03 21:31:28;;;;;;;24.45;10.20;;;26.40;71.90;;;;;;5035042;28;20044;-68
2023/07/03 21:33:53;;;;;;;24.05;10.50;;;26.40;71.80;;;;;;5035298;28;20104;-68
2023/07/03 21:36:22;;;;;;;24.52;9.90;;;26.40;72.10;;;;;;5053159;28;20407;-67
2023/07/03 21:38:54;;;;;;;27.83;10.05;;;26.40;72.10;;;;;;5053230;28;20029;-68
2023/07/03 21:41:21;;;;;;;23.10;9.95;;;26.40;71.80;;;;;;5053213;28;20045;-68
2023/07/03 21:43:51;;;;;;;23.80;9.93;;;26.40;72.40;;;;;;5057703;22;20029;-79
2023/07/03 21:46:18;;;;;;;26.40;9.80;;;26.40;72.60;;;;;;5014292;28;20670;-75
2023/07/03 21:48:45;;;;;;;21.50;9.88;;;26.40;72.50;;;;;;5013084;28;20044;-77
2023/07/03 21:51:12;;;;;;;20.88;10.02;;;26.40;72.50;;;;;;5013434;28;20084;-76
2023/07/03 21:53:39;;;;;;;24.00;9.60;;;26.40;72.60;;;;;;5012989;28;20100;-76
2023/07/03 21:56:17;;;;;;;19.67;9.50;;;26.40;73.10;;;;;;4996329;28;20043;-76
2023/07/03 21:58:44;;;;;;;22.65;9.52;;;26.30;72.80;;;;;;5005497;28;20093;-77
2023/07/03 22:01:24;;;;;;;22.25;9.82;;;26.30;73.10;;;;;;4993032;28;20073;-76
2023/07/03 22:03:51;;;;;;;22.30;10.93;;;26.30;73.00;;;;;;4975771;28;20408;-77
2023/07/03 22:06:17;;;;;;;20.27;10.68;;;26.30;73.40;;;;;;4997700;28;20117;-76
2023/07/03 22:08:43;;;;;;;20.75;11.00;;;26.30;73.30;;;;;;5013007;28;20046;-76
2023/07/03 22:11:09;;;;;;;25.17;10.98;;;26.30;73.50;;;;;;5012818;28;20097;-78
2023/07/03 22:13:35;;;;;;;27.05;11.35;;;26.20;73.60;;;;;;5012885;28;20134;-77
2023/07/03 22:16:01;;;;;;;21.55;10.23;;;26.20;73.70;;;;;;5012363;28;20029;-77
2023/07/03 22:18:26;;;;;;;21.83;10.40;;;26.20;73.80;;;;;;5012986;28;20120;-77
2023/07/03 22:20:52;;;;;;;20.85;9.90;;;26.20;73.70;;;;;;5012841;28;20037;-75
2023/07/03 22:23:19;;;;;;;24.02;9.57;;;26.20;73.70;;;;;;5012730;28;20041;-74
2023/07/03 22:25:46;;;;;;;23.77;9.45;;;26.10;73.80;;;;;;5012611;28;20034;-76
2023/07/03 22:28:12;;;;;;;19.02;9.48;;;26.20;73.80;;;;;;5012738;28;20061;-77
2023/07/03 22:30:37;;;;;;;25.45;10.50;;;26.20;73.60;;;;;;5012605;28;20074;-75
2023/07/03 22:33:03;;;;;;;22.55;10.73;;;26.20;73.80;;;;;;5012508;28;20053;-75
2023/07/03 22:35:29;;;;;;;22.98;12.57;;;26.20;73.70;;;;;;5012727;28;20034;-76
2023/07/03 22:37:54;;;;;;;26.00;14.57;;;26.20;73.90;;;;;;5013188;28;20149;-77
2023/07/03 22:40:20;;;;;;;25.20;15.52;;;26.20;74.00;;;;;;5012778;28;20395;-74
2023/07/03 22:42:46;;;;;;;32.40;17.23;;;26.10;73.70;;;;;;5012904;28;20467;-75
2023/07/03 22:45:12;;;;;;;31.23;17.08;;;26.10;74.30;;;;;;5012483;28;20144;-75
2023/07/03 22:47:38;;;;;;;32.08;17.80;;;26.10;74.40;;;;;;5012409;28;20116;-75
2023/07/03 22:50:06;;;;;;;30.98;17.48;;;26.10;74.30;;;;;;4994354;28;20129;-75
2023/07/03 22:52:33;;;;;;;27.52;16.00;;;26.00;74.40;;;;;;5012395;28;20038;-74
2023/07/03 22:55:00;;;;;;;27.20;12.95;;;26.00;74.90;;;;;;5012473;28;20101;-75
2023/07/03 22:57:26;;;;;;;24.38;14.02;;;26.00;74.90;;;;;;5012310;28;20034;-75
2023/07/03 22:59:53;;;;;;;23.85;12.73;;;26.00;75.10;;;;;;5012182;28;20046;-75
2023/07/03 23:02:19;;;;;;;24.23;12.48;;;25.90;75.30;;;;;;4994716;28;20444;-75
2023/07/03 23:04:46;;;;;;;20.85;11.02;;;25.80;75.50;;;;;;5012562;28;20034;-75
2023/07/03 23:07:12;;;;;;;22.63;11.20;;;25.80;75.80;;;;;;5012442;28;20038;-75
2023/07/03 23:09:38;;;;;;;23.00;11.05;;;25.80;75.80;;;;;;5012075;28;20038;-75
2023/07/03 23:12:05;;;;;;;19.30;10.55;;;25.70;75.70;;;;;;5012557;28;20553;-73
2023/07/03 23:14:31;;;;;;;23.63;9.80;;;25.70;75.80;;;;;;5017932;28;20038;-76
2023/07/03 23:17:00;;;;;;;23.17;10.40;;;25.70;75.80;;;;;;5017040;28;20488;-76
2023/07/03 23:19:28;;;;;;;20.40;9.15;;;25.70;76.10;;;;;;4997441;28;20034;-74
2023/07/03 23:21:55;;;;;;;19.83;9.65;;;25.70;76.20;;;;;;4998334;28;20035;-74
2023/07/03 23:24:22;;;;;;;17.65;9.00;;;25.70;76.20;;;;;;4996887;28;20026;-75
2023/07/03 23:26:51;;;;;;;23.40;9.45;;;25.70;76.00;;;;;;4996579;28;20031;-75
2023/07/03 23:29:18;;;;;;;24.35;10.00;;;25.70;76.40;;;;;;4996454;28;20035;-75
2023/07/03 23:31:44;;;;;;;19.58;9.05;;;25.60;76.40;;;;;;4996233;28;20031;-74
2023/07/03 23:34:10;;;;;;;24.02;9.57;;;25.60;76.60;;;;;;4978794;28;20035;-75
2023/07/03 23:36:36;;;;;;;22.15;9.02;;;25.60;76.90;;;;;;4978920;28;20038;-75
2023/07/03 23:39:02;;;;;;;22.55;9.15;;;25.60;77.00;;;;;;4996233;28;20037;-75
2023/07/03 23:41:30;;;;;;;17.73;8.90;;;25.60;77.40;;;;;;4996261;28;20035;-74
2023/07/03 23:43:56;;;;;;;16.70;8.90;;;25.60;77.50;;;;;;4995871;28;20039;-75
2023/07/03 23:46:22;;;;;;;19.50;9.27;;;25.50;77.60;;;;;;4996292;28;20121;-74
2023/07/03 23:48:47;;;;;;;22.63;9.00;;;25.50;77.50;;;;;;4996312;28;20160;-74
2023/07/03 23:51:15;;;;;;;26.60;9.27;;;25.50;77.60;;;;;;4978196;28;20125;-75
2023/07/03 23:53:44;;;;;;;20.38;9.43;;;25.50;77.70;;;;;;4996038;28;20053;-76
2023/07/03 23:56:15;;;;;;;19.17;8.05;;;25.50;78.00;;;;;;4996104;28;20104;-75
2023/07/03 23:58:42;;;;;;;20.95;9.15;;;25.50;77.80;;;;;;4996217;28;20525;-75
